LPB weather

El Alto International Airport
La Paz / El Alto, La Paz Department, Bolivia

Public forecast

Using degrees Celsius for public forecast. Weather courtesy of forecast.io.

METAR (pilot weather report)

Retrieved 2018/05/27 23:00 UTC (31 seconds ago):

SLLP 272300Z 08005KT 060V120 9999 FEW015 07/M03 Q1036

TAF (pilot weather forecast)

Forecast is more than 12 hours old.

Retrieved 2018/05/24 18:15 UTC (3 days ago):

TAF COR SLLP 241700Z 2418/2518 21010KT 9999 FEW020 TX17/2420Z TNM06/2510Z BECMG 2501/2504 06005KT NSC